Cobb County-Mc Collum Field Atlanta US
ICAO: KRYY
IATA: RYY
Category: Medium
Scheduled Services: No

Elevation: 1040 ft
TransAlt. 18000 ft.

Airport Communications:
ATLANTA APP/DEP:121
AWOS 3:128.125
CTAF:125.9
GND:119
MC COLLUM TWR:125.9
UNICOM:122.7

KRYY Zoom In..

If you have problems with the map follow the link
https://www.worldairports.se/pages/airport.php?
ICAO=KRYY

Runways:

(A) RW 09 length 6311 ft width 100 ft
---- / hdg 93

(B) RW 27 length 6311 ft width 100 ft
ILS 111.90 / hdg 273

Location; KRYY
Day. 12 / Time. 09.50 Zulu
* Altimeter: 30.49
* Temperature: -03° c. -26.6°f.
* Wind from: 000° Speed 00 kn.
Dewpoint: -04° c.
Visibility: 10 Statute Miles.
Clouds: Clear (automated report).

KRYY 120950Z AUTO 00000KT 10SM CLR M03/M04 A3049 RMK AO2 SLP045 T10281039 FZRANO PNO $


Wind - Calm.

 
 
jpsmedia worldairports.se 2019   terms of use